createdAt,value
2023-02-19T00:05:55.421Z,100924.99
2023-02-19T00:12:01.804Z,100928.73
2023-02-19T00:17:57.037Z,100923.33
2023-02-19T00:24:00.453Z,100921.08
2023-02-19T00:30:04.106Z,100924.27
2023-02-19T00:36:07.724Z,100917.38
2023-02-19T00:42:11.610Z,100904.76
2023-02-19T00:48:15.010Z,100891.33
2023-02-19T00:54:18.471Z,100897.20
2023-02-19T01:00:22.077Z,100896.27
2023-02-19T01:06:25.476Z,100886.65
2023-02-19T01:12:28.942Z,100887.63
2023-02-19T01:18:32.529Z,100876.92
2023-02-19T01:24:36.170Z,100875.52
2023-02-19T01:30:39.529Z,100857.73
2023-02-19T01:36:45.603Z,100854.50
2023-02-19T01:42:51.722Z,100830.48
2023-02-19T01:48:55.367Z,100840.86
2023-02-19T01:54:58.885Z,100833.88
2023-02-19T02:01:05.331Z,100832.58
2023-02-19T02:07:11.544Z,100822.88
2023-02-19T02:13:15.139Z,100801.91
2023-02-19T02:19:18.613Z,100805.59
2023-02-19T02:25:24.966Z,100804.77
2023-02-19T02:31:40.594Z,100808.98
2023-02-19T02:37:44.287Z,100813.49
2023-02-19T02:43:47.887Z,100807.68
2023-02-19T02:49:54.236Z,100802.20
2023-02-19T02:55:58.048Z,100808.88
2023-02-19T03:02:32.237Z,100816.45
2023-02-19T03:08:42.373Z,100815.20
2023-02-19T03:14:50.134Z,100823.04
2023-02-19T03:20:53.619Z,100832.98
2023-02-19T03:26:57.103Z,100842.85
2023-02-19T03:33:09.549Z,100837.10
2023-02-19T03:39:18.850Z,100844.77
2023-02-19T03:45:31.657Z,100842.96
2023-02-19T03:51:50.542Z,100850.23
2023-02-19T03:57:57.019Z,100845.61
2023-02-19T04:04:15.823Z,100845.07
2023-02-19T04:10:22.387Z,100852.24
2023-02-19T04:16:25.955Z,100854.90
2023-02-19T04:22:29.325Z,100865.63
2023-02-19T04:28:32.843Z,100868.75
2023-02-19T04:34:36.226Z,100875.75
2023-02-19T04:40:39.664Z,100881.08
2023-02-19T04:46:43.301Z,100888.23
2023-02-19T04:52:46.775Z,100890.83
2023-02-19T04:58:50.380Z,100892.30
2023-02-19T05:04:19.091Z,100903.04
2023-02-19T05:10:14.724Z,100897.77
2023-02-19T05:16:18.462Z,100901.50
2023-02-19T05:22:21.917Z,100903.30
2023-02-19T05:28:37.586Z,100893.06
2023-02-19T05:34:41.110Z,100891.47
2023-02-19T05:40:44.795Z,100894.51
2023-02-19T05:46:48.364Z,100903.98
2023-02-19T05:52:44.945Z,100899.96
2023-02-19T05:58:48.376Z,100910.52
2023-02-19T06:04:53.543Z,100907.11
2023-02-19T06:10:57.030Z,100899.73
2023-02-19T06:17:00.584Z,100899.92
2023-02-19T06:23:04.001Z,100901.45
2023-02-19T06:29:07.390Z,100911.36
2023-02-19T06:35:11.015Z,100923.95
2023-02-19T06:41:14.770Z,100939.05
2023-02-19T06:47:18.353Z,100957.85
2023-02-19T06:53:21.921Z,100963.88
2023-02-19T06:59:25.144Z,100976.48
2023-02-19T07:05:28.774Z,100983.64
2023-02-19T07:11:37.987Z,100983.02
2023-02-19T07:17:30.120Z,100995.23
2023-02-19T07:23:33.597Z,101006.23
2023-02-19T07:29:37.153Z,101019.14
2023-02-19T07:35:40.541Z,101029.20
2023-02-19T07:41:44.010Z,101037.05
2023-02-19T07:47:47.512Z,101041.42
2023-02-19T07:53:50.912Z,101050.30
2023-02-19T07:59:54.602Z,101068.42
2023-02-19T08:05:58.096Z,101080.46
2023-02-19T08:12:02.711Z,101096.08
2023-02-19T08:18:06.305Z,101101.02
2023-02-19T08:24:09.984Z,101113.52
2023-02-19T08:30:13.244Z,101139.31
2023-02-19T08:36:16.819Z,101149.37
2023-02-19T08:42:20.434Z,101156.96
2023-02-19T08:48:23.873Z,101167.20
2023-02-19T08:54:27.385Z,101178.25
2023-02-19T09:00:30.220Z,101191.23
2023-02-19T09:06:33.690Z,101202.98
2023-02-19T09:12:37.137Z,101207.83
2023-02-19T09:18:40.863Z,101215.98
2023-02-19T09:24:44.403Z,101221.40
2023-02-19T09:30:48.134Z,101228.04
2023-02-19T09:36:51.723Z,101228.95
2023-02-19T09:42:57.790Z,101237.59
2023-02-19T09:49:01.520Z,101244.81
2023-02-19T09:55:05.272Z,101250.33
2023-02-19T10:01:23.947Z,101258.95
2023-02-19T10:07:20.204Z,101269.03
2023-02-19T10:13:26.386Z,101273.15
2023-02-19T10:19:29.966Z,101278.48
2023-02-19T10:25:33.506Z,101296.55
2023-02-19T10:31:39.747Z,101309.17
2023-02-19T10:37:43.144Z,101316.11
2023-02-19T10:43:46.748Z,101328.58
2023-02-19T10:49:51.592Z,101334.63
2023-02-19T10:55:59.188Z,101336.30
2023-02-19T11:02:17.922Z,101345.08
2023-02-19T11:08:24.844Z,101362.45
2023-02-19T11:14:31.149Z,101375.81
2023-02-19T11:20:37.695Z,101388.12
2023-02-19T11:26:34.466Z,101395.98
2023-02-19T11:32:23.012Z,101405.38
2023-02-19T11:38:28.518Z,101398.44
2023-02-19T11:44:49.963Z,101403.39
2023-02-19T11:50:51.645Z,101411.69
2023-02-19T11:57:03.897Z,101407.09
2023-02-19T12:03:19.594Z,101410.29
2023-02-19T12:09:32.290Z,101417.69
2023-02-19T12:15:38.861Z,101430.77
2023-02-19T12:21:47.751Z,101440.61
2023-02-19T12:27:56.941Z,101434.26
2023-02-19T12:34:05.130Z,101445.66
2023-02-19T12:40:20.736Z,101447.97
2023-02-19T12:46:36.700Z,101464.83
2023-02-19T12:52:55.344Z,101456.59
2023-02-19T12:58:50.841Z,101459.80
2023-02-19T13:05:01.245Z,101458.61
2023-02-19T13:11:07.150Z,101470.27
2023-02-19T13:17:09.773Z,101477.60
2023-02-19T13:23:10.383Z,101482.19
2023-02-19T13:29:05.418Z,101481.49
2023-02-19T13:35:11.227Z,101479.15
2023-02-19T13:41:13.701Z,101489.91
2023-02-19T13:47:19.796Z,101482.42
2023-02-19T13:53:29.205Z,101484.76
2023-02-19T13:59:37.472Z,101486.84
2023-02-19T14:05:39.762Z,101496.09
2023-02-19T14:11:43.174Z,101518.27
2023-02-19T14:17:40.050Z,101520.77
2023-02-19T14:23:43.464Z,101521.44
2023-02-19T14:29:47.900Z,101528.89
2023-02-19T14:35:41.407Z,101525.67
2023-02-19T14:41:26.274Z,101532.04
2023-02-19T14:47:26.595Z,101529.49
2023-02-19T14:53:33.127Z,101534.33
2023-02-19T14:59:48.770Z,101542.14
2023-02-19T15:05:55.302Z,101540.93
2023-02-19T15:11:57.845Z,101551.48
2023-02-19T15:18:07.618Z,101560.17
2023-02-19T15:23:49.784Z,101553.94
2023-02-19T15:29:59.686Z,101569.34
2023-02-19T15:35:36.495Z,101565.32
2023-02-19T15:41:34.573Z,101560.59
2023-02-19T15:47:35.581Z,101568.59
2023-02-19T15:53:43.849Z,101577.77
2023-02-19T15:59:53.764Z,101585.77
2023-02-19T16:05:24.135Z,101592.43
2023-02-19T16:11:33.530Z,101610.14
2023-02-19T16:17:27.930Z,101622.81
2023-02-19T16:23:24.058Z,101626.72
2023-02-19T16:29:27.810Z,101643.16
2023-02-19T16:35:24.028Z,101647.62
2023-02-19T16:41:25.988Z,101651.66
2023-02-19T16:47:30.241Z,101659.91
2023-02-19T16:53:33.741Z,101662.57
2023-02-19T16:59:09.995Z,101663.69
2023-02-19T17:05:13.583Z,101668.58
2023-02-19T17:10:47.479Z,101675.46
2023-02-19T17:17:02.754Z,101676.31
2023-02-19T17:22:41.684Z,101671.36
2023-02-19T17:28:10.693Z,101675.38
2023-02-19T17:34:06.922Z,101685.58
2023-02-19T17:39:53.351Z,101687.80
2023-02-19T17:44:56.457Z,101692.77
2023-02-19T17:51:00.428Z,101697.46
2023-02-19T17:56:52.977Z,101700.40
2023-02-19T18:02:18.401Z,101709.11
2023-02-19T18:07:47.039Z,101708.13
2023-02-19T18:13:50.463Z,101708.13
2023-02-19T18:19:53.838Z,101716.73
2023-02-19T18:25:57.616Z,101721.35
2023-02-19T18:32:01.120Z,101729.92
2023-02-19T18:38:04.849Z,101736.27
2023-02-19T18:44:06.732Z,101736.29
2023-02-19T18:50:10.182Z,101739.84
2023-02-19T18:55:58.985Z,101738.16
2023-02-19T19:02:02.461Z,101740.97
2023-02-19T19:08:05.896Z,101736.75
2023-02-19T19:14:09.320Z,101739.48
2023-02-19T19:20:12.708Z,101741.14
2023-02-19T19:26:16.370Z,101747.00
2023-02-19T19:32:12.433Z,101743.63
2023-02-19T19:38:16.003Z,101733.54
2023-02-19T19:44:19.453Z,101738.05
2023-02-19T19:50:21.755Z,101737.89
2023-02-19T19:56:07.810Z,101732.67
2023-02-19T20:02:11.419Z,101733.13
2023-02-19T20:08:14.814Z,101733.15
2023-02-19T20:14:11.643Z,101728.55
2023-02-19T20:20:15.033Z,101728.19
2023-02-19T20:25:59.816Z,101740.84
2023-02-19T20:31:56.586Z,101745.73
2023-02-19T20:38:00.338Z,101740.84
2023-02-19T20:44:03.759Z,101752.73
2023-02-19T20:50:07.183Z,101760.58
2023-02-19T20:56:10.813Z,101758.17
2023-02-19T21:02:14.641Z,101753.66
2023-02-19T21:08:18.258Z,101751.69
2023-02-19T21:14:21.656Z,101754.02
2023-02-19T21:20:25.499Z,101754.84
2023-02-19T21:26:28.878Z,101739.19
2023-02-19T21:32:38.584Z,101726.65
2023-02-19T21:38:42.017Z,101718.95
2023-02-19T21:44:45.629Z,101714.38
2023-02-19T21:50:48.129Z,101707.92
2023-02-19T21:56:50.217Z,101706.14
2023-02-19T22:02:53.648Z,101698.19
2023-02-19T22:08:57.467Z,101686.58
2023-02-19T22:15:01.179Z,101674.82
2023-02-19T22:21:04.876Z,101665.73
2023-02-19T22:27:08.529Z,101655.45
2023-02-19T22:33:11.910Z,101654.01
2023-02-19T22:39:15.669Z,101659.88
2023-02-19T22:45:19.040Z,101666.49
2023-02-19T22:51:14.886Z,101678.98
2023-02-19T22:57:18.381Z,101691.86
2023-02-19T23:03:22.074Z,101685.86
2023-02-19T23:09:25.503Z,101685.83
2023-02-19T23:15:29.232Z,101691.35
2023-02-19T23:21:26.073Z,101682.32
2023-02-19T23:27:28.680Z,101681.89
2023-02-19T23:33:32.210Z,101673.80
2023-02-19T23:39:35.625Z,101662.75
2023-02-19T23:45:39.032Z,101653.33
2023-02-19T23:51:42.561Z,101654.42
2023-02-19T23:57:45.988Z,101644.10
